createdAt,value
2018-06-04T00:02:06.123Z,34.20
2018-06-04T00:04:34.417Z,38.03
2018-06-04T00:07:02.615Z,36.20
2018-06-04T00:09:30.854Z,30.93
2018-06-04T00:11:59.068Z,38.23
2018-06-04T00:14:27.271Z,34.67
2018-06-04T00:16:55.442Z,36.60
2018-06-04T00:19:23.713Z,37.90
2018-06-04T00:21:51.900Z,38.20
2018-06-04T00:24:20.083Z,35.97
2018-06-04T00:26:48.221Z,35.50
2018-06-04T00:29:16.404Z,35.57
2018-06-04T00:31:44.581Z,40.30
2018-06-04T00:34:12.737Z,36.47
2018-06-04T00:36:41.000Z,38.97
2018-06-04T00:39:09.182Z,39.17
2018-06-04T00:41:37.348Z,40.93
2018-06-04T00:44:05.595Z,41.10
2018-06-04T00:46:33.929Z,36.10
2018-06-04T00:49:02.089Z,37.87
2018-06-04T00:51:30.334Z,32.50
2018-06-04T00:53:58.594Z,44.50
2018-06-04T00:56:26.748Z,36.73
2018-06-04T00:58:54.984Z,39.50
2018-06-04T01:01:23.148Z,32.47
2018-06-04T01:03:51.330Z,41.57
2018-06-04T01:06:19.530Z,38.50
2018-06-04T01:08:47.715Z,55.27
2018-06-04T01:11:16.070Z,47.93
2018-06-04T01:13:44.247Z,40.57
2018-06-04T01:16:12.496Z,45.03
2018-06-04T01:18:40.697Z,48.33
2018-06-04T01:21:08.879Z,43.13
2018-06-04T01:23:37.971Z,43.30
2018-06-04T01:26:06.153Z,48.13
2018-06-04T01:28:34.373Z,48.87
2018-06-04T01:31:02.584Z,45.30
2018-06-04T01:33:30.881Z,40.40
2018-06-04T01:35:59.039Z,41.93
2018-06-04T01:38:27.210Z,40.40
2018-06-04T01:40:55.383Z,45.77
2018-06-04T01:43:23.637Z,43.50
2018-06-04T01:45:51.793Z,51.23
2018-06-04T01:48:19.987Z,41.50
2018-06-04T01:50:48.179Z,46.93
2018-06-04T01:53:16.377Z,52.43
2018-06-04T01:55:44.529Z,47.60
2018-06-04T01:58:12.750Z,41.67
2018-06-04T02:00:40.895Z,40.63
2018-06-04T02:03:09.091Z,43.87
2018-06-04T02:05:37.294Z,41.17
2018-06-04T02:08:05.592Z,46.17
2018-06-04T02:10:33.754Z,49.67
2018-06-04T02:13:01.956Z,47.77
2018-06-04T02:15:30.179Z,40.57
2018-06-04T02:17:58.406Z,46.70
2018-06-04T02:20:26.912Z,47.63
2018-06-04T02:22:55.099Z,45.00
2018-06-04T02:25:23.330Z,48.80
2018-06-04T02:27:51.461Z,50.23
2018-06-04T02:30:19.743Z,44.40
2018-06-04T02:32:47.924Z,47.00
2018-06-04T02:35:16.126Z,44.70
2018-06-04T02:37:44.259Z,50.23
2018-06-04T02:40:12.543Z,50.23
2018-06-04T02:42:40.721Z,50.70
2018-06-04T02:45:08.901Z,52.53
2018-06-04T02:47:37.106Z,58.20
2018-06-04T02:50:05.559Z,53.87
2018-06-04T02:52:33.607Z,48.93
2018-06-04T02:55:01.825Z,66.70
2018-06-04T02:57:29.995Z,51.27
2018-06-04T02:59:58.171Z,62.07
2018-06-04T03:02:26.403Z,57.37
2018-06-04T03:04:54.656Z,51.57
2018-06-04T03:07:22.900Z,67.73
2018-06-04T03:09:51.073Z,59.80
2018-06-04T03:12:19.344Z,57.83
2018-06-04T03:14:47.504Z,59.80
2018-06-04T03:17:15.675Z,59.17
2018-06-04T03:19:44.145Z,49.40
2018-06-04T03:22:12.332Z,63.30
2018-06-04T03:24:40.508Z,63.97
2018-06-04T03:27:08.655Z,61.37
2018-06-04T03:29:37.752Z,59.17
2018-06-04T03:32:06.061Z,61.80
2018-06-04T03:34:34.238Z,57.67
2018-06-04T03:37:02.479Z,61.63
2018-06-04T03:39:30.620Z,61.70
2018-06-04T03:41:59.003Z,63.67
2018-06-04T03:44:27.193Z,61.00
2018-06-04T03:46:55.407Z,65.87
2018-06-04T03:49:23.607Z,63.60
2018-06-04T03:51:51.813Z,66.60
2018-06-04T03:54:19.991Z,65.00
2018-06-04T03:56:48.130Z,48.43
2018-06-04T03:59:16.282Z,63.00
2018-06-04T04:01:44.493Z,58.10
2018-06-04T04:04:12.658Z,57.13
2018-06-04T04:06:41.270Z,62.07
2018-06-04T04:09:09.598Z,67.10
2018-06-04T04:11:37.835Z,65.43
2018-06-04T04:14:06.067Z,60.53
2018-06-04T04:16:36.869Z,59.27
2018-06-04T04:19:05.406Z,59.27
2018-06-04T04:21:33.602Z,56.30
2018-06-04T04:24:01.753Z,61.17
2018-06-04T04:26:29.925Z,62.87
2018-06-04T04:28:58.055Z,58.87
2018-06-04T04:31:26.387Z,52.60
2018-06-04T04:33:54.590Z,58.60
2018-06-04T04:36:22.733Z,62.50
2018-06-04T04:38:50.950Z,57.40
2018-06-04T04:41:19.081Z,59.87
2018-06-04T04:43:48.068Z,57.60
2018-06-04T04:46:16.339Z,61.87
2018-06-04T04:48:44.507Z,59.23
2018-06-04T04:51:12.705Z,54.67
2018-06-04T04:53:40.853Z,53.77
2018-06-04T04:56:09.042Z,58.30
2018-06-04T04:58:37.225Z,56.97
2018-06-04T05:01:05.389Z,56.27
2018-06-04T05:03:33.555Z,59.00
2018-06-04T05:06:01.686Z,53.87
2018-06-04T05:08:29.879Z,54.43
2018-06-04T05:10:58.033Z,54.07
2018-06-04T05:13:26.207Z,51.63
2018-06-04T05:15:54.511Z,53.77
2018-06-04T05:18:22.697Z,52.77
2018-06-04T05:20:50.851Z,51.83
2018-06-04T05:23:19.030Z,53.17
2018-06-04T05:25:47.193Z,56.53
2018-06-04T05:28:15.450Z,53.80
2018-06-04T05:30:43.614Z,51.43
2018-06-04T05:33:11.766Z,56.77
2018-06-04T05:35:40.214Z,51.67
2018-06-04T05:38:08.382Z,58.00
2018-06-04T05:40:36.547Z,51.03
2018-06-04T05:43:04.746Z,55.30
2018-06-04T05:45:32.902Z,57.43
2018-06-04T05:48:01.075Z,57.90
2018-06-04T05:50:29.307Z,51.47
2018-06-04T05:52:57.479Z,56.97
2018-06-04T05:55:25.740Z,51.00
2018-06-04T05:57:53.918Z,59.00
2018-06-04T06:00:22.180Z,56.97
2018-06-04T06:02:50.378Z,56.27
2018-06-04T06:05:18.979Z,56.80
2018-06-04T06:07:47.134Z,51.80
2018-06-04T06:10:15.338Z,52.53
2018-06-04T06:12:43.543Z,50.03
2018-06-04T06:15:11.698Z,58.10
2018-06-04T06:17:39.861Z,52.73
2018-06-04T06:20:08.029Z,56.10
2018-06-04T06:22:36.196Z,49.03
2018-06-04T06:25:04.453Z,52.57
2018-06-04T06:27:32.608Z,52.00
2018-06-04T06:30:00.771Z,52.37
2018-06-04T06:32:28.938Z,54.23
2018-06-04T06:34:57.078Z,56.27
2018-06-04T06:37:25.250Z,54.50
2018-06-04T06:39:53.462Z,66.50
2018-06-04T06:42:21.626Z,57.97
2018-06-04T06:44:49.843Z,52.47
2018-06-04T06:47:18.050Z,57.03
2018-06-04T06:49:46.190Z,60.73
2018-06-04T06:52:14.367Z,67.07
2018-06-04T06:54:43.392Z,71.30
2018-06-04T06:57:11.542Z,64.77
2018-06-04T06:59:39.699Z,72.07
2018-06-04T07:02:07.877Z,70.23
2018-06-04T07:04:36.055Z,71.50
2018-06-04T07:07:04.399Z,78.37
2018-06-04T07:09:32.516Z,72.53
2018-06-04T07:12:00.713Z,65.33
2018-06-04T07:14:28.886Z,67.47
2018-06-04T07:16:57.055Z,72.97
2018-06-04T07:19:25.313Z,64.60
2018-06-04T07:21:54.120Z,62.83
2018-06-04T07:24:22.276Z,66.03
2018-06-04T07:26:50.498Z,62.13
2018-06-04T07:29:19.563Z,57.53
2018-06-04T07:31:47.711Z,57.27
2018-06-04T07:34:15.883Z,59.50
2018-06-04T07:36:44.073Z,60.90
2018-06-04T07:39:12.286Z,67.57
2018-06-04T07:41:40.488Z,61.93
2018-06-04T07:44:08.651Z,63.17
2018-06-04T07:46:36.875Z,63.63
2018-06-04T07:49:05.115Z,65.33
2018-06-04T07:51:33.287Z,68.43
2018-06-04T07:54:01.487Z,61.73
2018-06-04T07:56:29.617Z,61.03
2018-06-04T07:58:57.867Z,65.57
2018-06-04T08:01:26.095Z,65.50
2018-06-04T08:03:54.401Z,56.20
2018-06-04T08:06:22.655Z,59.33
2018-06-04T08:08:50.822Z,56.80
2018-06-04T08:14:11.535Z,56.20
2018-06-04T08:16:45.729Z,56.97
2018-06-04T08:19:14.250Z,59.07
2018-06-04T08:21:43.084Z,56.70
2018-06-04T08:24:11.498Z,57.70
2018-06-04T08:26:39.630Z,52.07
2018-06-04T08:29:08.782Z,53.03
2018-06-04T08:31:38.582Z,50.70
2018-06-04T08:34:11.279Z,54.57
2018-06-04T08:36:40.290Z,52.87
2018-06-04T08:39:08.574Z,54.27
2018-06-04T08:41:37.729Z,50.83
2018-06-04T08:44:08.326Z,51.67
2018-06-04T08:46:37.238Z,48.93
2018-06-04T08:49:05.740Z,47.63
2018-06-04T08:51:33.934Z,51.93
2018-06-04T08:54:02.985Z,46.10
2018-06-04T08:56:31.138Z,47.37
2018-06-04T08:58:59.332Z,44.50
2018-06-04T09:01:27.500Z,43.73
2018-06-04T09:03:55.942Z,44.47
2018-06-04T09:06:24.114Z,40.40
2018-06-04T09:08:52.305Z,43.13
2018-06-04T09:11:20.506Z,39.53
2018-06-04T09:13:48.660Z,38.33
2018-06-04T09:16:16.866Z,40.43
2018-06-04T09:18:45.599Z,37.77
2018-06-04T09:21:14.342Z,36.90
2018-06-04T09:23:46.458Z,35.20
2018-06-04T09:26:14.667Z,38.03
2018-06-04T09:28:42.884Z,36.73
2018-06-04T09:31:11.067Z,34.33
2018-06-04T09:33:39.266Z,34.50
2018-06-04T09:36:07.489Z,32.20
2018-06-04T09:38:35.801Z,33.23
2018-06-04T09:41:04.101Z,34.53
2018-06-04T09:43:32.246Z,34.17
2018-06-04T09:46:00.494Z,31.80
2018-06-04T09:48:28.740Z,34.87
2018-06-04T09:50:56.903Z,34.60
2018-06-04T09:53:25.808Z,32.77
2018-06-04T09:55:53.961Z,30.03
2018-06-04T09:58:22.141Z,33.40
2018-06-04T10:00:50.329Z,33.63
2018-06-04T10:03:18.539Z,36.20
2018-06-04T10:05:46.954Z,35.43
2018-06-04T10:08:15.127Z,33.00
2018-06-04T10:10:44.749Z,30.10
2018-06-04T10:13:13.615Z,32.27
2018-06-04T10:15:42.043Z,29.47
2018-06-04T10:18:10.203Z,29.17
2018-06-04T10:20:38.423Z,29.37
2018-06-04T10:23:11.299Z,27.17
2018-06-04T10:25:39.467Z,34.13
2018-06-04T10:28:07.629Z,35.23
2018-06-04T10:30:36.037Z,29.73
2018-06-04T10:33:04.783Z,29.73
2018-06-04T10:35:32.953Z,23.63
2018-06-04T10:38:01.166Z,30.20
2018-06-04T10:40:29.484Z,30.70
2018-06-04T10:42:57.651Z,25.67
2018-06-04T10:45:25.817Z,26.37
2018-06-04T10:47:54.019Z,28.57
2018-06-04T10:50:22.194Z,27.67
2018-06-04T10:52:50.353Z,26.70
2018-06-04T10:55:18.929Z,27.50
2018-06-04T10:57:47.151Z,24.13
2018-06-04T11:00:15.373Z,28.07
2018-06-04T11:02:43.599Z,25.50
2018-06-04T11:05:11.757Z,26.73
2018-06-04T11:07:40.665Z,26.57
2018-06-04T11:10:08.843Z,25.57
2018-06-04T11:12:37.111Z,28.37
2018-06-04T11:15:05.373Z,25.33
2018-06-04T11:17:33.559Z,28.00
2018-06-04T11:20:01.787Z,26.87
2018-06-04T11:22:30.353Z,25.07
2018-06-04T11:24:58.627Z,24.00
2018-06-04T11:27:26.795Z,28.07
2018-06-04T11:29:54.951Z,28.57
2018-06-04T11:32:23.118Z,27.47
2018-06-04T11:34:51.600Z,29.48
2018-06-04T11:37:19.784Z,31.00
2018-06-04T11:39:47.966Z,27.07
2018-06-04T11:42:16.218Z,26.90
2018-06-04T11:44:44.374Z,28.25
2018-06-04T11:47:12.586Z,29.35
2018-06-04T11:49:40.746Z,29.35
2018-06-04T11:52:08.924Z,25.95
2018-06-04T11:54:37.190Z,28.15
2018-06-04T11:57:05.416Z,29.27
2018-06-04T11:59:33.661Z,27.90
2018-06-04T12:02:01.889Z,27.47
2018-06-04T12:04:30.046Z,28.13
2018-06-04T12:06:59.227Z,27.17
2018-06-04T12:09:27.398Z,27.60
2018-06-04T12:11:55.576Z,25.00
2018-06-04T12:14:23.751Z,23.47
2018-06-04T12:16:51.912Z,27.13
2018-06-04T12:19:20.080Z,27.65
2018-06-04T12:21:48.262Z,25.83
2018-06-04T12:24:16.427Z,26.65
2018-06-04T12:26:44.612Z,25.30
2018-06-04T12:29:12.764Z,23.75
2018-06-04T12:31:40.986Z,21.48
2018-06-04T12:34:09.144Z,25.48
2018-06-04T12:36:37.464Z,28.60
2018-06-04T12:39:07.751Z,25.57
2018-06-04T12:41:35.994Z,25.08
2018-06-04T12:44:04.194Z,27.00
2018-06-04T12:46:32.371Z,29.03
2018-06-04T12:49:01.461Z,27.33
2018-06-04T12:51:29.657Z,28.67
2018-06-04T12:53:57.806Z,26.97
2018-06-04T12:56:26.017Z,26.73
2018-06-04T12:58:54.198Z,27.50
2018-06-04T13:01:22.446Z,26.93
2018-06-04T13:03:50.602Z,26.47
2018-06-04T13:06:18.787Z,27.53
2018-06-04T13:08:47.002Z,26.00
2018-06-04T13:11:15.175Z,25.47
2018-06-04T13:13:43.417Z,27.00
2018-06-04T13:16:11.756Z,24.57
2018-06-04T13:18:40.014Z,25.83
2018-06-04T13:21:08.220Z,25.20
2018-06-04T13:23:36.401Z,23.20
2018-06-04T13:26:04.682Z,22.50
2018-06-04T13:28:32.831Z,23.65
2018-06-04T13:31:00.997Z,25.70
2018-06-04T13:33:29.110Z,23.62
2018-06-04T13:35:57.313Z,24.47
2018-06-04T13:38:25.494Z,22.62
2018-06-04T13:40:53.647Z,26.17
2018-06-04T13:43:21.833Z,25.00
2018-06-04T13:45:50.061Z,26.20
2018-06-04T13:48:18.647Z,25.33
2018-06-04T13:50:46.954Z,25.97
2018-06-04T13:53:15.854Z,25.05
2018-06-04T13:55:44.066Z,23.33
2018-06-04T13:58:12.683Z,28.63
2018-06-04T14:00:40.859Z,27.67
2018-06-04T14:03:09.109Z,28.73
2018-06-04T14:05:37.263Z,27.00
2018-06-04T14:08:05.546Z,26.12
2018-06-04T14:10:33.769Z,26.50
2018-06-04T14:13:02.020Z,29.53
2018-06-04T14:15:30.261Z,23.00
2018-06-04T14:17:58.589Z,27.13
2018-06-04T14:20:28.197Z,26.27
2018-06-04T14:22:56.385Z,23.07
2018-06-04T14:25:24.565Z,24.23
2018-06-04T14:27:59.840Z,31.00
2018-06-04T14:30:27.987Z,27.93
2018-06-04T14:32:56.157Z,26.77
2018-06-04T14:35:24.592Z,26.47
2018-06-04T14:37:52.777Z,24.83
2018-06-04T14:40:21.094Z,27.07
2018-06-04T14:42:49.265Z,27.30
2018-06-04T14:45:17.654Z,22.63
2018-06-04T14:47:45.797Z,25.17
2018-06-04T14:50:15.180Z,26.83
2018-06-04T14:52:44.690Z,26.03
2018-06-04T14:55:12.890Z,28.23
2018-06-04T14:57:41.101Z,29.97
2018-06-04T15:00:09.268Z,25.97
2018-06-04T15:02:37.455Z,24.57
2018-06-04T15:05:05.684Z,26.43
2018-06-04T15:07:34.264Z,24.13
2018-06-04T15:10:02.526Z,24.40
2018-06-04T15:12:30.799Z,22.23
2018-06-04T15:14:58.968Z,22.57
2018-06-04T15:17:27.160Z,23.00
2018-06-04T15:19:55.431Z,22.10
2018-06-04T15:22:23.572Z,23.17
2018-06-04T15:24:51.748Z,21.97
2018-06-04T15:27:20.911Z,25.93
2018-06-04T15:29:49.106Z,18.73
2018-06-04T15:32:18.665Z,19.40
2018-06-04T15:34:46.816Z,20.07
2018-06-04T15:37:14.973Z,19.67
2018-06-04T15:39:43.136Z,20.83
2018-06-04T15:42:11.444Z,17.57
2018-06-04T15:44:39.655Z,17.13
2018-06-04T15:47:07.849Z,17.00
2018-06-04T15:49:36.137Z,13.77
2018-06-04T15:52:04.318Z,15.80
2018-06-04T15:54:32.492Z,15.47
2018-06-04T15:57:00.787Z,18.10
2018-06-04T15:59:28.994Z,18.73
2018-06-04T16:01:57.220Z,17.47
2018-06-04T16:04:25.406Z,18.70
2018-06-04T16:06:53.592Z,17.83
2018-06-04T16:09:21.808Z,19.07
2018-06-04T16:11:49.956Z,17.10
2018-06-04T16:14:18.133Z,18.33
2018-06-04T16:16:47.058Z,16.77
2018-06-04T16:19:15.206Z,14.47
2018-06-04T16:21:44.236Z,15.87
2018-06-04T16:24:12.430Z,15.37
2018-06-04T16:26:40.639Z,12.97
2018-06-04T16:29:08.896Z,11.63
2018-06-04T16:31:37.067Z,10.70
2018-06-04T16:34:05.291Z,11.53
2018-06-04T16:36:33.462Z,11.93
2018-06-04T16:39:01.629Z,13.13
2018-06-04T16:41:29.957Z,13.87
2018-06-04T16:43:58.175Z,14.37
2018-06-04T16:46:26.329Z,14.43
2018-06-04T16:48:55.702Z,14.00
2018-06-04T16:51:25.188Z,14.57
2018-06-04T16:53:55.439Z,12.53
2018-06-04T16:56:23.837Z,14.13
2018-06-04T16:58:52.023Z,12.77
2018-06-04T17:01:20.330Z,11.73
2018-06-04T17:03:48.689Z,11.40
2018-06-04T17:06:16.863Z,13.60
2018-06-04T17:08:45.049Z,12.77
2018-06-04T17:11:13.215Z,11.40
2018-06-04T17:13:41.400Z,15.80
2018-06-04T17:16:10.419Z,14.27
2018-06-04T17:18:38.608Z,14.30
2018-06-04T17:21:06.455Z,12.97
2018-06-04T17:23:34.883Z,12.73
2018-06-04T17:26:03.109Z,11.73
2018-06-04T17:28:31.341Z,12.43
2018-06-04T17:30:59.606Z,11.70
2018-06-04T17:33:27.884Z,11.30
2018-06-04T17:35:56.065Z,10.17
2018-06-04T17:38:24.273Z,9.80
2018-06-04T17:40:52.829Z,9.73
2018-06-04T17:43:20.969Z,13.60
2018-06-04T17:45:49.351Z,9.73
2018-06-04T17:48:17.481Z,10.40
2018-06-04T17:50:45.694Z,9.70
2018-06-04T17:53:13.855Z,11.43
2018-06-04T17:55:42.090Z,10.80
2018-06-04T17:58:10.222Z,12.27
2018-06-04T18:00:38.419Z,9.83
2018-06-04T18:03:06.675Z,8.57
2018-06-04T18:05:34.903Z,8.70
2018-06-04T18:08:03.101Z,9.87
2018-06-04T18:10:31.350Z,10.40
2018-06-04T18:13:00.027Z,9.00
2018-06-04T18:15:28.237Z,9.33
2018-06-04T18:17:56.369Z,9.30
2018-06-04T18:20:24.740Z,8.13
2018-06-04T18:22:53.097Z,8.40
2018-06-04T18:25:21.398Z,9.40
2018-06-04T18:27:49.663Z,10.67
2018-06-04T18:30:18.113Z,9.30
2018-06-04T18:32:46.512Z,9.13
2018-06-04T18:35:14.690Z,9.70
2018-06-04T18:37:42.834Z,8.43
2018-06-04T18:40:11.073Z,7.73
2018-06-04T18:42:39.738Z,8.87
2018-06-04T18:45:07.998Z,9.00
2018-06-04T18:47:36.142Z,9.30
2018-06-04T18:50:04.453Z,8.37
2018-06-04T18:52:32.673Z,8.03
2018-06-04T18:55:00.850Z,9.70
2018-06-04T18:57:28.986Z,8.47
2018-06-04T18:59:57.150Z,11.33
2018-06-04T19:02:25.284Z,8.93
2018-06-04T19:04:53.558Z,11.67
2018-06-04T19:07:21.833Z,11.53
2018-06-04T19:09:50.393Z,9.80
2018-06-04T19:12:18.594Z,9.80
2018-06-04T19:14:46.795Z,11.40
2018-06-04T19:17:14.988Z,11.50
2018-06-04T19:19:43.205Z,11.27
2018-06-04T19:22:11.638Z,12.87
2018-06-04T19:24:39.867Z,10.73
2018-06-04T19:27:08.167Z,11.00
2018-06-04T19:29:36.398Z,13.30
2018-06-04T19:32:04.592Z,11.83
2018-06-04T19:34:33.242Z,13.77
2018-06-04T19:37:01.456Z,14.57
2018-06-04T19:39:29.723Z,15.90
2018-06-04T19:41:58.007Z,16.07
2018-06-04T19:44:26.182Z,15.70
2018-06-04T19:46:54.409Z,13.30
2018-06-04T19:49:22.685Z,13.87
2018-06-04T19:51:51.013Z,14.67
2018-06-04T19:54:20.013Z,14.33
2018-06-04T19:56:48.270Z,12.73
2018-06-04T19:59:16.404Z,13.67
2018-06-04T20:01:44.613Z,14.63
2018-06-04T20:04:12.860Z,13.17
2018-06-04T20:06:41.043Z,16.03
2018-06-04T20:09:09.309Z,14.40
2018-06-04T20:11:38.790Z,21.47
2018-06-04T20:14:06.975Z,14.97
2018-06-04T20:16:35.148Z,15.47
2018-06-04T20:19:03.501Z,13.17
2018-06-04T20:21:32.001Z,13.87
2018-06-04T20:24:00.293Z,13.63
2018-06-04T20:26:29.253Z,14.50
2018-06-04T20:28:57.475Z,15.03
2018-06-04T20:31:25.761Z,16.40
2018-06-04T20:33:54.005Z,17.23
2018-06-04T20:36:23.677Z,19.93
2018-06-04T20:38:51.915Z,14.50
2018-06-04T20:41:20.107Z,16.07
2018-06-04T20:43:48.448Z,15.40
2018-06-04T20:46:16.725Z,15.63
2018-06-04T20:48:50.935Z,18.40
2018-06-04T20:51:19.502Z,19.00
2018-06-04T20:53:47.706Z,16.00
2018-06-04T20:56:20.865Z,16.43
2018-06-04T20:58:50.190Z,15.73
2018-06-04T21:01:23.758Z,16.77
2018-06-04T21:03:53.280Z,17.50
2018-06-04T21:06:21.528Z,21.13
2018-06-04T21:08:49.717Z,15.17
2018-06-04T21:11:18.047Z,16.23
2018-06-04T21:13:49.501Z,17.20
2018-06-04T21:16:18.310Z,22.07
2018-06-04T21:18:46.456Z,18.60
2018-06-04T21:21:16.775Z,19.17
2018-06-04T21:23:45.049Z,17.07
2018-06-04T21:26:15.009Z,19.17
2018-06-04T21:28:43.184Z,18.77
2018-06-04T21:31:11.977Z,17.80
2018-06-04T21:33:40.459Z,19.13
2018-06-04T21:36:08.666Z,18.07
2018-06-04T21:38:37.764Z,19.77
2018-06-04T21:41:10.064Z,19.30
2018-06-04T21:43:39.202Z,21.83
2018-06-04T21:46:07.404Z,18.63
2018-06-04T21:48:35.674Z,19.60
2018-06-04T21:51:03.866Z,16.23
2018-06-04T21:53:32.153Z,20.83
2018-06-04T21:56:00.290Z,17.43
2018-06-04T21:58:28.450Z,17.43
2018-06-04T22:00:57.288Z,20.67
2018-06-04T22:03:25.494Z,20.80
2018-06-04T22:05:53.670Z,20.07
2018-06-04T22:08:21.810Z,20.33
2018-06-04T22:10:49.966Z,17.17
2018-06-04T22:13:18.118Z,19.20
2018-06-04T22:15:46.448Z,17.30
2018-06-04T22:18:14.753Z,17.70
2018-06-04T22:20:43.126Z,17.87
2018-06-04T22:23:11.300Z,20.80
2018-06-04T22:25:39.472Z,17.17
2018-06-04T22:28:07.770Z,17.37
2018-06-04T22:30:35.944Z,23.00
2018-06-04T22:33:04.233Z,17.43
2018-06-04T22:35:32.415Z,22.67
2018-06-04T22:38:00.587Z,23.10
2018-06-04T22:40:28.861Z,22.87
2018-06-04T22:42:57.075Z,20.87
2018-06-04T22:45:25.239Z,23.20
2018-06-04T22:47:53.413Z,25.07
2018-06-04T22:50:21.650Z,28.83
2018-06-04T22:52:49.846Z,22.40
2018-06-04T22:55:18.091Z,21.97
2018-06-04T22:57:46.279Z,22.43
2018-06-04T23:00:18.030Z,20.23
2018-06-04T23:02:46.267Z,22.43
2018-06-04T23:05:14.496Z,20.63
2018-06-04T23:07:42.737Z,18.97
2018-06-04T23:10:10.947Z,27.17
2018-06-04T23:12:39.097Z,21.17
2018-06-04T23:15:07.296Z,21.23
2018-06-04T23:17:35.499Z,18.00
2018-06-04T23:20:03.784Z,25.23
2018-06-04T23:22:31.957Z,30.10
2018-06-04T23:25:00.120Z,23.00
2018-06-04T23:27:28.271Z,22.27
2018-06-04T23:29:56.415Z,22.13
2018-06-04T23:32:25.501Z,32.80
2018-06-04T23:34:53.670Z,24.67
2018-06-04T23:37:21.844Z,25.50
2018-06-04T23:39:50.037Z,23.07
2018-06-04T23:42:18.200Z,30.97
2018-06-04T23:44:46.391Z,22.40
2018-06-04T23:47:14.522Z,20.10
2018-06-04T23:49:42.718Z,22.80
2018-06-04T23:52:10.922Z,20.50
2018-06-04T23:54:39.067Z,19.90
2018-06-04T23:57:07.205Z,20.83
2018-06-04T23:59:35.385Z,32.03
